sensor_id;sensor_type;location;lat;lon;timestamp;temperature;humidity
44695;DHT22;32845;59.422;17.930;2023-03-29T00:02:51;-7.40;99.90
44695;DHT22;32845;59.422;17.930;2023-03-29T00:07:23;-7.50;99.90
44695;DHT22;32845;59.422;17.930;2023-03-29T00:11:55;-7.60;99.90
44695;DHT22;32845;59.422;17.930;2023-03-29T00:16:26;-7.60;99.90
44695;DHT22;32845;59.422;17.930;2023-03-29T00:20:57;-7.60;99.90
44695;DHT22;32845;59.422;17.930;2023-03-29T00:25:28;-7.50;99.90
44695;DHT22;32845;59.422;17.930;2023-03-29T00:29:59;-7.50;99.90
44695;DHT22;32845;59.422;17.930;2023-03-29T00:34:30;-7.50;99.90
44695;DHT22;32845;59.422;17.930;2023-03-29T00:39:00;-7.40;99.90
44695;DHT22;32845;59.422;17.930;2023-03-29T00:43:59;-7.40;99.90
44695;DHT22;32845;59.422;17.930;2023-03-29T00:48:30;-7.30;99.90
44695;DHT22;32845;59.422;17.930;2023-03-29T00:57:52;-7.10;99.90
44695;DHT22;32845;59.422;17.930;2023-03-29T01:02:27;-7.10;99.90
44695;DHT22;32845;59.422;17.930;2023-03-29T01:07:11;-7.20;99.90
44695;DHT22;32845;59.422;17.930;2023-03-29T01:11:50;-7.40;99.90
44695;DHT22;32845;59.422;17.930;2023-03-29T01:16:21;-7.50;99.90
44695;DHT22;32845;59.422;17.930;2023-03-29T01:25:54;-7.80;99.90
44695;DHT22;32845;59.422;17.930;2023-03-29T01:30:43;-7.80;99.90
44695;DHT22;32845;59.422;17.930;2023-03-29T01:35:24;-7.90;99.90
44695;DHT22;32845;59.422;17.930;2023-03-29T01:39:56;-8.00;99.90
44695;DHT22;32845;59.422;17.930;2023-03-29T01:53:51;-8.40;99.90
44695;DHT22;32845;59.422;17.930;2023-03-29T01:58:28;-8.50;99.90
44695;DHT22;32845;59.422;17.930;2023-03-29T02:03:07;-8.60;99.90
44695;DHT22;32845;59.422;17.930;2023-03-29T02:07:38;-8.60;99.90
44695;DHT22;32845;59.422;17.930;2023-03-29T02:12:10;-8.70;99.90
44695;DHT22;32845;59.422;17.930;2023-03-29T02:16:41;-8.70;99.90
44695;DHT22;32845;59.422;17.930;2023-03-29T02:21:23;-8.70;99.90
44695;DHT22;32845;59.422;17.930;2023-03-29T02:25:54;-8.70;99.90
44695;DHT22;32845;59.422;17.930;2023-03-29T02:30:30;-8.80;99.90
44695;DHT22;32845;59.422;17.930;2023-03-29T02:35:10;-8.90;99.90
44695;DHT22;32845;59.422;17.930;2023-03-29T02:39:43;-9.00;99.90
44695;DHT22;32845;59.422;17.930;2023-03-29T02:44:26;-9.10;99.90
44695;DHT22;32845;59.422;17.930;2023-03-29T02:48:58;-9.20;99.90
44695;DHT22;32845;59.422;17.930;2023-03-29T02:53:44;-9.20;99.90
44695;DHT22;32845;59.422;17.930;2023-03-29T02:58:15;-9.30;99.90
44695;DHT22;32845;59.422;17.930;2023-03-29T03:02:46;-9.20;99.90
44695;DHT22;32845;59.422;17.930;2023-03-29T03:07:18;-9.20;99.90
44695;DHT22;32845;59.422;17.930;2023-03-29T03:11:49;-9.20;99.90
44695;DHT22;32845;59.422;17.930;2023-03-29T03:16:20;-9.30;99.90
44695;DHT22;32845;59.422;17.930;2023-03-29T03:20:59;-9.30;99.90
44695;DHT22;32845;59.422;17.930;2023-03-29T03:25:30;-9.40;99.90
44695;DHT22;32845;59.422;17.930;2023-03-29T03:30:05;-9.40;99.90
44695;DHT22;32845;59.422;17.930;2023-03-29T03:34:36;-9.40;99.90
44695;DHT22;32845;59.422;17.930;2023-03-29T03:39:08;-9.40;99.90
44695;DHT22;32845;59.422;17.930;2023-03-29T03:43:39;-9.30;99.90
44695;DHT22;32845;59.422;17.930;2023-03-29T03:48:12;-9.30;99.90
44695;DHT22;32845;59.422;17.930;2023-03-29T03:52:43;-9.30;99.90
44695;DHT22;32845;59.422;17.930;2023-03-29T03:57:14;-9.40;99.90
44695;DHT22;32845;59.422;17.930;2023-03-29T04:01:44;-9.40;99.90
44695;DHT22;32845;59.422;17.930;2023-03-29T04:06:15;-9.30;99.90
44695;DHT22;32845;59.422;17.930;2023-03-29T04:10:54;-9.30;99.90
44695;DHT22;32845;59.422;17.930;2023-03-29T04:15:24;-9.30;99.90
44695;DHT22;32845;59.422;17.930;2023-03-29T04:19:56;-9.30;99.90
44695;DHT22;32845;59.422;17.930;2023-03-29T04:24:27;-9.30;99.90
44695;DHT22;32845;59.422;17.930;2023-03-29T04:28:57;-9.40;99.90
44695;DHT22;32845;59.422;17.930;2023-03-29T04:33:28;-9.40;99.90
44695;DHT22;32845;59.422;17.930;2023-03-29T04:37:59;-9.40;99.90
44695;DHT22;32845;59.422;17.930;2023-03-29T04:42:29;-9.40;99.90
44695;DHT22;32845;59.422;17.930;2023-03-29T04:47:00;-9.40;99.90
44695;DHT22;32845;59.422;17.930;2023-03-29T04:51:31;-9.40;99.90
44695;DHT22;32845;59.422;17.930;2023-03-29T04:56:02;-9.30;99.90
44695;DHT22;32845;59.422;17.930;2023-03-29T05:00:34;-9.20;99.90
44695;DHT22;32845;59.422;17.930;2023-03-29T05:05:04;-9.00;99.90
44695;DHT22;32845;59.422;17.930;2023-03-29T05:09:35;-8.90;99.90
44695;DHT22;32845;59.422;17.930;2023-03-29T05:14:06;-8.70;99.90
44695;DHT22;32845;59.422;17.930;2023-03-29T05:18:38;-8.50;99.90
44695;DHT22;32845;59.422;17.930;2023-03-29T05:23:09;-8.30;99.90
44695;DHT22;32845;59.422;17.930;2023-03-29T05:27:40;-8.10;99.90
44695;DHT22;32845;59.422;17.930;2023-03-29T05:32:11;-7.90;99.90
44695;DHT22;32845;59.422;17.930;2023-03-29T05:36:42;-7.70;99.90
44695;DHT22;32845;59.422;17.930;2023-03-29T05:41:15;-7.60;99.90
44695;DHT22;32845;59.422;17.930;2023-03-29T05:45:47;-7.50;99.90
44695;DHT22;32845;59.422;17.930;2023-03-29T05:50:18;-7.40;99.90
44695;DHT22;32845;59.422;17.930;2023-03-29T05:54:48;-7.40;99.90
44695;DHT22;32845;59.422;17.930;2023-03-29T05:59:19;-7.30;99.90
44695;DHT22;32845;59.422;17.930;2023-03-29T06:03:51;-7.00;99.90
44695;DHT22;32845;59.422;17.930;2023-03-29T06:08:21;-6.70;99.90
44695;DHT22;32845;59.422;17.930;2023-03-29T06:12:52;-6.40;99.90
44695;DHT22;32845;59.422;17.930;2023-03-29T06:17:23;-6.00;99.90
44695;DHT22;32845;59.422;17.930;2023-03-29T06:21:54;-5.60;99.90
44695;DHT22;32845;59.422;17.930;2023-03-29T06:26:25;-5.20;99.90
44695;DHT22;32845;59.422;17.930;2023-03-29T06:30:58;-4.80;99.90
44695;DHT22;32845;59.422;17.930;2023-03-29T06:35:32;-4.50;99.90
44695;DHT22;32845;59.422;17.930;2023-03-29T06:40:04;-4.30;99.90
44695;DHT22;32845;59.422;17.930;2023-03-29T06:44:36;-4.00;99.90
44695;DHT22;32845;59.422;17.930;2023-03-29T06:49:07;-3.80;99.90
44695;DHT22;32845;59.422;17.930;2023-03-29T06:53:38;-3.60;99.90
44695;DHT22;32845;59.422;17.930;2023-03-29T06:58:08;-3.40;99.90
44695;DHT22;32845;59.422;17.930;2023-03-29T07:02:40;-3.20;99.90
44695;DHT22;32845;59.422;17.930;2023-03-29T07:07:11;-3.10;99.90
44695;DHT22;32845;59.422;17.930;2023-03-29T07:11:49;-2.90;99.90
44695;DHT22;32845;59.422;17.930;2023-03-29T07:16:20;-2.80;99.90
44695;DHT22;32845;59.422;17.930;2023-03-29T07:20:51;-2.60;99.90
44695;DHT22;32845;59.422;17.930;2023-03-29T07:25:23;-2.40;99.90
44695;DHT22;32845;59.422;17.930;2023-03-29T07:29:54;-2.30;99.90
44695;DHT22;32845;59.422;17.930;2023-03-29T07:34:26;-2.10;99.90
44695;DHT22;32845;59.422;17.930;2023-03-29T07:38:59;-1.90;99.90
44695;DHT22;32845;59.422;17.930;2023-03-29T07:43:31;-1.80;99.90
44695;DHT22;32845;59.422;17.930;2023-03-29T07:48:03;-1.70;99.90
44695;DHT22;32845;59.422;17.930;2023-03-29T07:52:35;-1.60;99.90
44695;DHT22;32845;59.422;17.930;2023-03-29T07:57:07;-1.50;99.90
44695;DHT22;32845;59.422;17.930;2023-03-29T08:01:38;-1.30;99.90
44695;DHT22;32845;59.422;17.930;2023-03-29T08:06:10;-1.20;99.90
44695;DHT22;32845;59.422;17.930;2023-03-29T08:10:41;-1.00;99.90
44695;DHT22;32845;59.422;17.930;2023-03-29T08:15:12;-1.00;99.90
44695;DHT22;32845;59.422;17.930;2023-03-29T08:19:43;-0.90;99.90
44695;DHT22;32845;59.422;17.930;2023-03-29T08:24:14;-0.80;99.90
44695;DHT22;32845;59.422;17.930;2023-03-29T08:28:44;-0.70;99.90
44695;DHT22;32845;59.422;17.930;2023-03-29T08:33:15;-0.60;99.90
44695;DHT22;32845;59.422;17.930;2023-03-29T08:37:46;-0.60;99.90
44695;DHT22;32845;59.422;17.930;2023-03-29T08:51:57;-0.20;99.90
44695;DHT22;32845;59.422;17.930;2023-03-29T08:56:33;-0.10;99.90
44695;DHT22;32845;59.422;17.930;2023-03-29T09:01:05;-0.10;99.90
44695;DHT22;32845;59.422;17.930;2023-03-29T09:05:42;0.00;99.90
44695;DHT22;32845;59.422;17.930;2023-03-29T09:10:15;0.10;99.90
44695;DHT22;32845;59.422;17.930;2023-03-29T09:19:36;0.30;99.90
44695;DHT22;32845;59.422;17.930;2023-03-29T09:33:40;0.40;99.90
44695;DHT22;32845;59.422;17.930;2023-03-29T09:38:15;0.50;99.90
44695;DHT22;32845;59.422;17.930;2023-03-29T09:42:48;0.50;99.90
44695;DHT22;32845;59.422;17.930;2023-03-29T09:47:30;0.60;99.90
44695;DHT22;32845;59.422;17.930;2023-03-29T09:52:08;0.60;99.90
44695;DHT22;32845;59.422;17.930;2023-03-29T09:56:41;0.60;99.90
44695;DHT22;32845;59.422;17.930;2023-03-29T10:01:14;0.70;99.90
44695;DHT22;32845;59.422;17.930;2023-03-29T10:05:49;0.70;99.90
44695;DHT22;32845;59.422;17.930;2023-03-29T10:10:34;0.80;99.90
44695;DHT22;32845;59.422;17.930;2023-03-29T10:15:06;0.80;99.90
44695;DHT22;32845;59.422;17.930;2023-03-29T10:19:50;0.80;99.90
44695;DHT22;32845;59.422;17.930;2023-03-29T10:24:24;0.80;99.90
44695;DHT22;32845;59.422;17.930;2023-03-29T10:28:55;0.80;99.90
44695;DHT22;32845;59.422;17.930;2023-03-29T10:33:32;0.80;99.90
44695;DHT22;32845;59.422;17.930;2023-03-29T10:38:05;0.70;99.90
44695;DHT22;32845;59.422;17.930;2023-03-29T10:42:46;0.60;99.90
44695;DHT22;32845;59.422;17.930;2023-03-29T10:47:19;0.50;99.90
44695;DHT22;32845;59.422;17.930;2023-03-29T10:51:51;0.50;99.90
44695;DHT22;32845;59.422;17.930;2023-03-29T10:56:28;0.50;99.90
44695;DHT22;32845;59.422;17.930;2023-03-29T11:01:02;0.40;99.90
44695;DHT22;32845;59.422;17.930;2023-03-29T11:05:44;0.40;99.90
44695;DHT22;32845;59.422;17.930;2023-03-29T11:15:45;0.30;99.90
44695;DHT22;32845;59.422;17.930;2023-03-29T11:30:23;0.30;99.90
44695;DHT22;32845;59.422;17.930;2023-03-29T11:35:36;0.30;99.90
44695;DHT22;32845;59.422;17.930;2023-03-29T11:45:37;0.30;99.90
44695;DHT22;32845;59.422;17.930;2023-03-29T11:50:43;0.20;99.90
44695;DHT22;32845;59.422;17.930;2023-03-29T11:55:28;0.10;99.90
44695;DHT22;32845;59.422;17.930;2023-03-29T12:05:06;0.00;99.90
44695;DHT22;32845;59.422;17.930;2023-03-29T12:09:52;0.00;99.90
44695;DHT22;32845;59.422;17.930;2023-03-29T12:14:42;0.00;99.90
44695;DHT22;32845;59.422;17.930;2023-03-29T12:23:57;-0.10;99.90
44695;DHT22;32845;59.422;17.930;2023-03-29T12:38:21;-0.20;99.90
44695;DHT22;32845;59.422;17.930;2023-03-29T12:43:00;-0.30;99.90
44695;DHT22;32845;59.422;17.930;2023-03-29T12:47:38;-0.40;99.90
44695;DHT22;32845;59.422;17.930;2023-03-29T12:52:32;-0.50;99.90
44695;DHT22;32845;59.422;17.930;2023-03-29T12:57:24;-0.60;99.90
44695;DHT22;32845;59.422;17.930;2023-03-29T13:07:00;-0.80;99.90
44695;DHT22;32845;59.422;17.930;2023-03-29T13:11:38;-0.90;99.90
44695;DHT22;32845;59.422;17.930;2023-03-29T13:16:14;-1.00;99.90
44695;DHT22;32845;59.422;17.930;2023-03-29T13:30:13;-1.20;99.90
44695;DHT22;32845;59.422;17.930;2023-03-29T13:34:57;-1.20;99.90
44695;DHT22;32845;59.422;17.930;2023-03-29T13:39:33;-1.00;99.90
44695;DHT22;32845;59.422;17.930;2023-03-29T13:49:19;-1.00;99.90
44695;DHT22;32845;59.422;17.930;2023-03-29T13:53:54;-1.00;99.90
44695;DHT22;32845;59.422;17.930;2023-03-29T14:03:12;-1.00;99.90
44695;DHT22;32845;59.422;17.930;2023-03-29T14:07:49;-1.00;99.90
44695;DHT22;32845;59.422;17.930;2023-03-29T14:12:21;-1.00;99.90
44695;DHT22;32845;59.422;17.930;2023-03-29T14:16:54;-1.00;99.90
44695;DHT22;32845;59.422;17.930;2023-03-29T14:21:25;-1.00;99.90
44695;DHT22;32845;59.422;17.930;2023-03-29T14:26:14;-1.00;99.90
44695;DHT22;32845;59.422;17.930;2023-03-29T14:30:46;-0.90;99.90
44695;DHT22;32845;59.422;17.930;2023-03-29T14:35:17;-0.90;99.90
44695;DHT22;32845;59.422;17.930;2023-03-29T14:39:48;-1.00;99.90
44695;DHT22;32845;59.422;17.930;2023-03-29T14:44:22;-0.80;99.90
44695;DHT22;32845;59.422;17.930;2023-03-29T14:48:55;-0.70;99.90
44695;DHT22;32845;59.422;17.930;2023-03-29T14:53:27;-0.70;99.90
44695;DHT22;32845;59.422;17.930;2023-03-29T14:58:01;-0.70;99.90
44695;DHT22;32845;59.422;17.930;2023-03-29T15:02:32;-0.70;99.90
44695;DHT22;32845;59.422;17.930;2023-03-29T15:07:03;-0.70;99.90
44695;DHT22;32845;59.422;17.930;2023-03-29T15:11:34;-0.80;99.90
44695;DHT22;32845;59.422;17.930;2023-03-29T15:16:05;-0.90;99.90
44695;DHT22;32845;59.422;17.930;2023-03-29T15:20:37;-1.00;99.90
44695;DHT22;32845;59.422;17.930;2023-03-29T15:25:18;-1.10;99.90
44695;DHT22;32845;59.422;17.930;2023-03-29T15:29:58;-1.10;99.90
44695;DHT22;32845;59.422;17.930;2023-03-29T15:34:31;-1.00;99.90
44695;DHT22;32845;59.422;17.930;2023-03-29T15:39:02;-1.00;99.90
44695;DHT22;32845;59.422;17.930;2023-03-29T15:43:34;-1.10;99.90
44695;DHT22;32845;59.422;17.930;2023-03-29T15:48:26;-1.10;99.90
44695;DHT22;32845;59.422;17.930;2023-03-29T15:52:57;-1.20;99.90
44695;DHT22;32845;59.422;17.930;2023-03-29T15:57:28;-1.40;99.90
44695;DHT22;32845;59.422;17.930;2023-03-29T16:01:59;-1.40;99.90
44695;DHT22;32845;59.422;17.930;2023-03-29T16:06:31;-1.40;99.90
44695;DHT22;32845;59.422;17.930;2023-03-29T16:11:02;-1.40;99.90
44695;DHT22;32845;59.422;17.930;2023-03-29T16:15:35;-1.40;99.90
44695;DHT22;32845;59.422;17.930;2023-03-29T16:20:06;-1.30;99.90
44695;DHT22;32845;59.422;17.930;2023-03-29T16:24:38;-1.30;99.90
44695;DHT22;32845;59.422;17.930;2023-03-29T16:29:09;-1.40;99.90
44695;DHT22;32845;59.422;17.930;2023-03-29T16:33:40;-1.40;99.90
44695;DHT22;32845;59.422;17.930;2023-03-29T16:38:10;-1.50;99.90
44695;DHT22;32845;59.422;17.930;2023-03-29T16:42:41;-1.50;99.90
44695;DHT22;32845;59.422;17.930;2023-03-29T16:47:12;-1.50;99.90
44695;DHT22;32845;59.422;17.930;2023-03-29T16:51:46;-1.60;99.90
44695;DHT22;32845;59.422;17.930;2023-03-29T16:56:17;-1.60;99.90
44695;DHT22;32845;59.422;17.930;2023-03-29T17:00:49;-1.70;99.90
44695;DHT22;32845;59.422;17.930;2023-03-29T17:05:21;-1.80;99.90
44695;DHT22;32845;59.422;17.930;2023-03-29T17:09:52;-1.80;99.90
44695;DHT22;32845;59.422;17.930;2023-03-29T17:14:23;-1.90;99.90
44695;DHT22;32845;59.422;17.930;2023-03-29T17:18:56;-1.90;99.90
44695;DHT22;32845;59.422;17.930;2023-03-29T17:23:29;-1.90;99.90
44695;DHT22;32845;59.422;17.930;2023-03-29T17:28:00;-1.90;99.90
44695;DHT22;32845;59.422;17.930;2023-03-29T17:32:30;-2.00;99.90
44695;DHT22;32845;59.422;17.930;2023-03-29T17:37:01;-2.00;99.90
44695;DHT22;32845;59.422;17.930;2023-03-29T17:41:33;-2.00;99.90
44695;DHT22;32845;59.422;17.930;2023-03-29T17:46:03;-2.00;99.90
44695;DHT22;32845;59.422;17.930;2023-03-29T17:50:35;-2.00;99.90
44695;DHT22;32845;59.422;17.930;2023-03-29T17:55:08;-2.00;99.90
44695;DHT22;32845;59.422;17.930;2023-03-29T17:59:40;-2.10;99.90
44695;DHT22;32845;59.422;17.930;2023-03-29T18:04:11;-2.10;99.90
44695;DHT22;32845;59.422;17.930;2023-03-29T18:08:42;-2.10;99.90
44695;DHT22;32845;59.422;17.930;2023-03-29T18:13:13;-2.10;99.90
44695;DHT22;32845;59.422;17.930;2023-03-29T18:17:44;-2.10;99.90
44695;DHT22;32845;59.422;17.930;2023-03-29T18:22:14;-2.20;99.90
44695;DHT22;32845;59.422;17.930;2023-03-29T18:26:47;-2.20;99.90
44695;DHT22;32845;59.422;17.930;2023-03-29T18:31:17;-2.20;99.90
44695;DHT22;32845;59.422;17.930;2023-03-29T18:35:49;-2.20;99.90
44695;DHT22;32845;59.422;17.930;2023-03-29T18:40:20;-2.30;99.90
44695;DHT22;32845;59.422;17.930;2023-03-29T18:44:53;-2.40;99.90
44695;DHT22;32845;59.422;17.930;2023-03-29T18:49:24;-2.40;99.90
44695;DHT22;32845;59.422;17.930;2023-03-29T18:53:56;-2.50;99.90
44695;DHT22;32845;59.422;17.930;2023-03-29T18:58:27;-2.50;99.90
44695;DHT22;32845;59.422;17.930;2023-03-29T19:02:59;-2.50;99.90
44695;DHT22;32845;59.422;17.930;2023-03-29T19:07:29;-2.60;99.90
44695;DHT22;32845;59.422;17.930;2023-03-29T19:12:01;-2.70;99.90
44695;DHT22;32845;59.422;17.930;2023-03-29T19:16:32;-2.70;99.90
44695;DHT22;32845;59.422;17.930;2023-03-29T19:21:03;-2.80;99.90
44695;DHT22;32845;59.422;17.930;2023-03-29T19:25:34;-2.90;99.90
44695;DHT22;32845;59.422;17.930;2023-03-29T19:30:05;-2.90;99.90
44695;DHT22;32845;59.422;17.930;2023-03-29T19:34:36;-3.00;99.90
44695;DHT22;32845;59.422;17.930;2023-03-29T19:39:07;-3.10;99.90
44695;DHT22;32845;59.422;17.930;2023-03-29T19:43:37;-3.10;99.90
44695;DHT22;32845;59.422;17.930;2023-03-29T19:48:08;-3.10;99.90
44695;DHT22;32845;59.422;17.930;2023-03-29T19:52:40;-3.10;99.90
44695;DHT22;32845;59.422;17.930;2023-03-29T19:57:11;-3.20;99.90
44695;DHT22;32845;59.422;17.930;2023-03-29T20:01:43;-3.20;99.90
44695;DHT22;32845;59.422;17.930;2023-03-29T20:06:20;-3.30;99.90
44695;DHT22;32845;59.422;17.930;2023-03-29T20:11:17;-3.40;99.90
44695;DHT22;32845;59.422;17.930;2023-03-29T20:15:53;-3.40;99.90
44695;DHT22;32845;59.422;17.930;2023-03-29T20:20:23;-3.50;99.90
44695;DHT22;32845;59.422;17.930;2023-03-29T20:24:54;-3.60;99.90
44695;DHT22;32845;59.422;17.930;2023-03-29T20:29:25;-3.70;99.90
44695;DHT22;32845;59.422;17.930;2023-03-29T20:33:57;-3.80;99.90
44695;DHT22;32845;59.422;17.930;2023-03-29T20:38:27;-3.80;99.90
44695;DHT22;32845;59.422;17.930;2023-03-29T20:42:58;-3.90;99.90
44695;DHT22;32845;59.422;17.930;2023-03-29T20:47:29;-3.90;99.90
44695;DHT22;32845;59.422;17.930;2023-03-29T20:51:59;-4.00;99.90
44695;DHT22;32845;59.422;17.930;2023-03-29T20:56:35;-4.10;99.90
44695;DHT22;32845;59.422;17.930;2023-03-29T21:01:09;-4.20;99.90
44695;DHT22;32845;59.422;17.930;2023-03-29T21:05:41;-4.20;99.90
44695;DHT22;32845;59.422;17.930;2023-03-29T21:10:13;-4.30;99.90
44695;DHT22;32845;59.422;17.930;2023-03-29T21:14:44;-4.40;99.90
44695;DHT22;32845;59.422;17.930;2023-03-29T21:19:16;-4.50;99.90
44695;DHT22;32845;59.422;17.930;2023-03-29T21:23:47;-4.50;99.90
44695;DHT22;32845;59.422;17.930;2023-03-29T21:28:18;-4.60;99.90
44695;DHT22;32845;59.422;17.930;2023-03-29T21:32:49;-4.60;99.90
44695;DHT22;32845;59.422;17.930;2023-03-29T21:37:20;-4.60;99.90
44695;DHT22;32845;59.422;17.930;2023-03-29T21:41:50;-4.70;99.90
44695;DHT22;32845;59.422;17.930;2023-03-29T21:46:21;-4.70;99.90
44695;DHT22;32845;59.422;17.930;2023-03-29T21:50:53;-4.70;99.90
44695;DHT22;32845;59.422;17.930;2023-03-29T21:55:24;-4.80;99.90
44695;DHT22;32845;59.422;17.930;2023-03-29T21:59:55;-4.80;99.90
44695;DHT22;32845;59.422;17.930;2023-03-29T22:04:26;-4.80;99.90
44695;DHT22;32845;59.422;17.930;2023-03-29T22:08:57;-4.80;99.90
44695;DHT22;32845;59.422;17.930;2023-03-29T22:13:30;-4.80;99.90
44695;DHT22;32845;59.422;17.930;2023-03-29T22:18:03;-4.90;99.90
44695;DHT22;32845;59.422;17.930;2023-03-29T22:22:34;-4.90;99.90
44695;DHT22;32845;59.422;17.930;2023-03-29T22:27:06;-4.90;99.90
44695;DHT22;32845;59.422;17.930;2023-03-29T22:31:37;-5.00;99.90
44695;DHT22;32845;59.422;17.930;2023-03-29T22:40:43;-5.10;99.90
44695;DHT22;32845;59.422;17.930;2023-03-29T22:45:14;-5.10;99.90
44695;DHT22;32845;59.422;17.930;2023-03-29T22:49:45;-5.20;99.90
44695;DHT22;32845;59.422;17.930;2023-03-29T22:54:15;-5.20;99.90
44695;DHT22;32845;59.422;17.930;2023-03-29T22:58:46;-5.20;99.90
44695;DHT22;32845;59.422;17.930;2023-03-29T23:03:17;-5.30;99.90
44695;DHT22;32845;59.422;17.930;2023-03-29T23:07:48;-5.30;99.90
44695;DHT22;32845;59.422;17.930;2023-03-29T23:12:18;-5.30;99.90
44695;DHT22;32845;59.422;17.930;2023-03-29T23:16:49;-5.40;99.90
44695;DHT22;32845;59.422;17.930;2023-03-29T23:21:20;-5.50;99.90
44695;DHT22;32845;59.422;17.930;2023-03-29T23:25:52;-5.50;99.90
44695;DHT22;32845;59.422;17.930;2023-03-29T23:30:23;-5.50;99.90
44695;DHT22;32845;59.422;17.930;2023-03-29T23:34:54;-5.50;99.90
44695;DHT22;32845;59.422;17.930;2023-03-29T23:39:25;-5.50;99.90
44695;DHT22;32845;59.422;17.930;2023-03-29T23:43:55;-5.50;99.90
44695;DHT22;32845;59.422;17.930;2023-03-29T23:48:27;-5.50;99.90
44695;DHT22;32845;59.422;17.930;2023-03-29T23:52:58;-5.60;99.90
44695;DHT22;32845;59.422;17.930;2023-03-29T23:57:29;-5.60;99.90
